sensor_id;sensor_type;location;lat;lon;timestamp;P1;durP1;ratioP1;P2;durP2;ratioP2
14306;SDS011;7237;49.500;11.400;2023-08-07T00:01:00;0.80;;;0.80;;
14306;SDS011;7237;49.500;11.400;2023-08-07T00:03:27;1.93;;;1.83;;
14306;SDS011;7237;49.500;11.400;2023-08-07T00:05:54;2.90;;;2.73;;
14306;SDS011;7237;49.500;11.400;2023-08-07T00:08:22;1.03;;;1.03;;
14306;SDS011;7237;49.500;11.400;2023-08-07T00:10:49;1.87;;;1.77;;
14306;SDS011;7237;49.500;11.400;2023-08-07T00:13:16;1.63;;;1.53;;
14306;SDS011;7237;49.500;11.400;2023-08-07T00:15:44;1.60;;;1.50;;
14306;SDS011;7237;49.500;11.400;2023-08-07T00:18:11;1.30;;;1.20;;
14306;SDS011;7237;49.500;11.400;2023-08-07T00:20:38;0.53;;;0.53;;
14306;SDS011;7237;49.500;11.400;2023-08-07T00:23:05;0.90;;;0.73;;
14306;SDS011;7237;49.500;11.400;2023-08-07T00:25:33;0.70;;;0.70;;
14306;SDS011;7237;49.500;11.400;2023-08-07T00:28:00;0.60;;;0.47;;
14306;SDS011;7237;49.500;11.400;2023-08-07T00:30:27;0.57;;;0.57;;
14306;SDS011;7237;49.500;11.400;2023-08-07T00:32:55;0.70;;;0.60;;
14306;SDS011;7237;49.500;11.400;2023-08-07T00:35:22;0.50;;;0.50;;
14306;SDS011;7237;49.500;11.400;2023-08-07T00:37:49;1.70;;;0.87;;
14306;SDS011;7237;49.500;11.400;2023-08-07T00:40:17;0.50;;;0.50;;
14306;SDS011;7237;49.500;11.400;2023-08-07T00:42:44;0.40;;;0.40;;
14306;SDS011;7237;49.500;11.400;2023-08-07T00:45:11;0.37;;;0.37;;
14306;SDS011;7237;49.500;11.400;2023-08-07T00:47:38;0.30;;;0.20;;
14306;SDS011;7237;49.500;11.400;2023-08-07T00:50:07;2.27;;;0.47;;
14306;SDS011;7237;49.500;11.400;2023-08-07T00:52:34;3.90;;;0.70;;
14306;SDS011;7237;49.500;11.400;2023-08-07T00:55:02;0.30;;;0.30;;
14306;SDS011;7237;49.500;11.400;2023-08-07T00:57:29;1.27;;;0.37;;
14306;SDS011;7237;49.500;11.400;2023-08-07T00:59:57;0.40;;;0.40;;
14306;SDS011;7237;49.500;11.400;2023-08-07T01:02:25;0.40;;;0.40;;
14306;SDS011;7237;49.500;11.400;2023-08-07T01:04:52;0.30;;;0.30;;
14306;SDS011;7237;49.500;11.400;2023-08-07T01:07:21;0.33;;;0.33;;
14306;SDS011;7237;49.500;11.400;2023-08-07T01:09:48;0.40;;;0.30;;
14306;SDS011;7237;49.500;11.400;2023-08-07T01:12:15;0.50;;;0.40;;
14306;SDS011;7237;49.500;11.400;2023-08-07T01:14:47;0.87;;;0.30;;
14306;SDS011;7237;49.500;11.400;2023-08-07T01:17:16;0.20;;;0.20;;
14306;SDS011;7237;49.500;11.400;2023-08-07T01:19:44;0.20;;;0.20;;
14306;SDS011;7237;49.500;11.400;2023-08-07T01:22:13;0.73;;;0.30;;
14306;SDS011;7237;49.500;11.400;2023-08-07T01:24:41;0.23;;;0.20;;
14306;SDS011;7237;49.500;11.400;2023-08-07T01:27:24;0.40;;;0.20;;
14306;SDS011;7237;49.500;11.400;2023-08-07T01:29:59;0.83;;;0.30;;
14306;SDS011;7237;49.500;11.400;2023-08-07T01:32:32;0.50;;;0.23;;
14306;SDS011;7237;49.500;11.400;2023-08-07T01:35:01;0.50;;;0.47;;
14306;SDS011;7237;49.500;11.400;2023-08-07T01:37:30;0.97;;;0.50;;
14306;SDS011;7237;49.500;11.400;2023-08-07T01:39:57;0.20;;;0.20;;
14306;SDS011;7237;49.500;11.400;2023-08-07T01:42:25;0.77;;;0.20;;
14306;SDS011;7237;49.500;11.400;2023-08-07T01:44:52;0.73;;;0.30;;
14306;SDS011;7237;49.500;11.400;2023-08-07T01:47:19;0.67;;;0.40;;
14306;SDS011;7237;49.500;11.400;2023-08-07T01:49:47;0.47;;;0.40;;
14306;SDS011;7237;49.500;11.400;2023-08-07T01:52:14;0.30;;;0.30;;
14306;SDS011;7237;49.500;11.400;2023-08-07T01:54:42;0.37;;;0.37;;
14306;SDS011;7237;49.500;11.400;2023-08-07T01:57:09;0.57;;;0.57;;
14306;SDS011;7237;49.500;11.400;2023-08-07T01:59:36;0.33;;;0.30;;
14306;SDS011;7237;49.500;11.400;2023-08-07T02:02:03;0.30;;;0.30;;
14306;SDS011;7237;49.500;11.400;2023-08-07T02:04:30;2.33;;;0.53;;
14306;SDS011;7237;49.500;11.400;2023-08-07T02:06:58;0.60;;;0.57;;
14306;SDS011;7237;49.500;11.400;2023-08-07T02:09:25;0.67;;;0.30;;
14306;SDS011;7237;49.500;11.400;2023-08-07T02:11:53;0.40;;;0.40;;
14306;SDS011;7237;49.500;11.400;2023-08-07T02:14:20;0.63;;;0.40;;
14306;SDS011;7237;49.500;11.400;2023-08-07T02:16:47;0.40;;;0.37;;
14306;SDS011;7237;49.500;11.400;2023-08-07T02:19:14;0.43;;;0.40;;
14306;SDS011;7237;49.500;11.400;2023-08-07T02:21:41;1.70;;;1.20;;
14306;SDS011;7237;49.500;11.400;2023-08-07T02:24:08;0.40;;;0.40;;
14306;SDS011;7237;49.500;11.400;2023-08-07T02:26:35;0.50;;;0.50;;
14306;SDS011;7237;49.500;11.400;2023-08-07T02:29:04;0.53;;;0.50;;
14306;SDS011;7237;49.500;11.400;2023-08-07T02:31:32;2.43;;;0.80;;
14306;SDS011;7237;49.500;11.400;2023-08-07T02:33:59;5.00;;;0.63;;
14306;SDS011;7237;49.500;11.400;2023-08-07T02:36:26;0.93;;;0.93;;
14306;SDS011;7237;49.500;11.400;2023-08-07T02:38:53;1.40;;;0.50;;
14306;SDS011;7237;49.500;11.400;2023-08-07T02:41:20;1.10;;;0.70;;
14306;SDS011;7237;49.500;11.400;2023-08-07T02:43:47;1.57;;;0.80;;
14306;SDS011;7237;49.500;11.400;2023-08-07T02:46:16;2.30;;;0.30;;
14306;SDS011;7237;49.500;11.400;2023-08-07T02:48:43;0.50;;;0.50;;
14306;SDS011;7237;49.500;11.400;2023-08-07T02:51:10;0.50;;;0.50;;
14306;SDS011;7237;49.500;11.400;2023-08-07T02:53:37;0.40;;;0.40;;
14306;SDS011;7237;49.500;11.400;2023-08-07T02:56:04;0.90;;;0.90;;
14306;SDS011;7237;49.500;11.400;2023-08-07T02:58:31;1.53;;;0.73;;
14306;SDS011;7237;49.500;11.400;2023-08-07T03:01:02;0.50;;;0.50;;
14306;SDS011;7237;49.500;11.400;2023-08-07T03:03:31;1.43;;;0.60;;
14306;SDS011;7237;49.500;11.400;2023-08-07T03:05:58;0.50;;;0.50;;
14306;SDS011;7237;49.500;11.400;2023-08-07T03:08:25;0.70;;;0.70;;
14306;SDS011;7237;49.500;11.400;2023-08-07T03:10:52;0.60;;;0.60;;
14306;SDS011;7237;49.500;11.400;2023-08-07T03:13:20;1.17;;;0.93;;
14306;SDS011;7237;49.500;11.400;2023-08-07T03:15:47;0.40;;;0.40;;
14306;SDS011;7237;49.500;11.400;2023-08-07T03:18:15;0.90;;;0.63;;
14306;SDS011;7237;49.500;11.400;2023-08-07T03:20:43;0.77;;;0.70;;
14306;SDS011;7237;49.500;11.400;2023-08-07T03:23:10;1.50;;;0.67;;
14306;SDS011;7237;49.500;11.400;2023-08-07T03:25:38;0.43;;;0.43;;
14306;SDS011;7237;49.500;11.400;2023-08-07T03:28:05;1.13;;;0.50;;
14306;SDS011;7237;49.500;11.400;2023-08-07T03:30:32;0.60;;;0.60;;
14306;SDS011;7237;49.500;11.400;2023-08-07T03:32:59;1.20;;;0.50;;
14306;SDS011;7237;49.500;11.400;2023-08-07T03:35:26;3.97;;;0.60;;
14306;SDS011;7237;49.500;11.400;2023-08-07T03:37:55;0.80;;;0.80;;
14306;SDS011;7237;49.500;11.400;2023-08-07T03:40:22;0.60;;;0.60;;
14306;SDS011;7237;49.500;11.400;2023-08-07T03:42:49;0.60;;;0.60;;
14306;SDS011;7237;49.500;11.400;2023-08-07T03:45:16;0.53;;;0.53;;
14306;SDS011;7237;49.500;11.400;2023-08-07T03:47:43;0.87;;;0.83;;
14306;SDS011;7237;49.500;11.400;2023-08-07T03:50:10;2.33;;;0.90;;
14306;SDS011;7237;49.500;11.400;2023-08-07T03:52:37;0.63;;;0.63;;
14306;SDS011;7237;49.500;11.400;2023-08-07T03:55:06;0.53;;;0.53;;
14306;SDS011;7237;49.500;11.400;2023-08-07T03:57:33;1.37;;;0.77;;
14306;SDS011;7237;49.500;11.400;2023-08-07T04:00:00;1.37;;;0.90;;
14306;SDS011;7237;49.500;11.400;2023-08-07T04:02:28;0.80;;;0.80;;
14306;SDS011;7237;49.500;11.400;2023-08-07T04:04:55;1.07;;;0.90;;
14306;SDS011;7237;49.500;11.400;2023-08-07T04:07:22;1.00;;;1.00;;
14306;SDS011;7237;49.500;11.400;2023-08-07T04:09:49;1.90;;;1.20;;
14306;SDS011;7237;49.500;11.400;2023-08-07T04:12:17;0.77;;;0.77;;
14306;SDS011;7237;49.500;11.400;2023-08-07T04:14:45;1.20;;;1.10;;
14306;SDS011;7237;49.500;11.400;2023-08-07T04:17:12;1.07;;;0.90;;
14306;SDS011;7237;49.500;11.400;2023-08-07T04:19:39;1.70;;;1.20;;
14306;SDS011;7237;49.500;11.400;2023-08-07T04:22:06;0.83;;;0.83;;
14306;SDS011;7237;49.500;11.400;2023-08-07T04:24:33;2.37;;;0.93;;
14306;SDS011;7237;49.500;11.400;2023-08-07T04:27:00;1.70;;;1.20;;
14306;SDS011;7237;49.500;11.400;2023-08-07T04:29:29;1.97;;;1.00;;
14306;SDS011;7237;49.500;11.400;2023-08-07T04:31:56;1.17;;;1.00;;
14306;SDS011;7237;49.500;11.400;2023-08-07T04:34:23;1.17;;;1.00;;
14306;SDS011;7237;49.500;11.400;2023-08-07T04:36:50;1.63;;;1.03;;
14306;SDS011;7237;49.500;11.400;2023-08-07T04:39:18;1.67;;;1.10;;
14306;SDS011;7237;49.500;11.400;2023-08-07T04:41:45;1.73;;;1.30;;
14306;SDS011;7237;49.500;11.400;2023-08-07T04:44:15;2.37;;;1.33;;
14306;SDS011;7237;49.500;11.400;2023-08-07T04:46:43;1.73;;;1.20;;
14306;SDS011;7237;49.500;11.400;2023-08-07T04:49:10;2.70;;;1.20;;
14306;SDS011;7237;49.500;11.400;2023-08-07T04:51:37;8.17;;;1.60;;
14306;SDS011;7237;49.500;11.400;2023-08-07T04:54:04;2.40;;;1.20;;
14306;SDS011;7237;49.500;11.400;2023-08-07T04:56:31;3.07;;;1.10;;
14306;SDS011;7237;49.500;11.400;2023-08-07T04:58:58;2.77;;;1.30;;
14306;SDS011;7237;49.500;11.400;2023-08-07T05:01:26;3.87;;;1.50;;
14306;SDS011;7237;49.500;11.400;2023-08-07T05:03:55;2.63;;;1.40;;
14306;SDS011;7237;49.500;11.400;2023-08-07T05:06:22;2.67;;;1.37;;
14306;SDS011;7237;49.500;11.400;2023-08-07T05:08:50;1.27;;;1.17;;
14306;SDS011;7237;49.500;11.400;2023-08-07T05:11:17;1.37;;;1.13;;
14306;SDS011;7237;49.500;11.400;2023-08-07T05:13:45;2.33;;;1.47;;
14306;SDS011;7237;49.500;11.400;2023-08-07T05:16:12;2.20;;;1.40;;
14306;SDS011;7237;49.500;11.400;2023-08-07T05:18:39;1.30;;;1.20;;
14306;SDS011;7237;49.500;11.400;2023-08-07T05:21:07;1.30;;;1.20;;
14306;SDS011;7237;49.500;11.400;2023-08-07T05:23:35;2.63;;;1.30;;
14306;SDS011;7237;49.500;11.400;2023-08-07T05:26:02;2.50;;;1.10;;
14306;SDS011;7237;49.500;11.400;2023-08-07T05:28:29;2.97;;;1.33;;
14306;SDS011;7237;49.500;11.400;2023-08-07T05:30:56;4.83;;;1.30;;
14306;SDS011;7237;49.500;11.400;2023-08-07T05:33:23;1.83;;;1.40;;
14306;SDS011;7237;49.500;11.400;2023-08-07T05:35:50;2.23;;;1.37;;
14306;SDS011;7237;49.500;11.400;2023-08-07T05:38:19;1.47;;;1.33;;
14306;SDS011;7237;49.500;11.400;2023-08-07T05:40:46;2.30;;;1.90;;
14306;SDS011;7237;49.500;11.400;2023-08-07T05:43:13;2.37;;;1.43;;
14306;SDS011;7237;49.500;11.400;2023-08-07T05:45:41;4.60;;;1.40;;
14306;SDS011;7237;49.500;11.400;2023-08-07T05:48:11;1.57;;;1.20;;
14306;SDS011;7237;49.500;11.400;2023-08-07T05:50:38;2.77;;;1.40;;
14306;SDS011;7237;49.500;11.400;2023-08-07T05:53:05;2.93;;;1.67;;
14306;SDS011;7237;49.500;11.400;2023-08-07T05:55:33;2.40;;;1.67;;
14306;SDS011;7237;49.500;11.400;2023-08-07T05:58:01;1.57;;;1.27;;
14306;SDS011;7237;49.500;11.400;2023-08-07T06:00:28;1.43;;;1.33;;
14306;SDS011;7237;49.500;11.400;2023-08-07T06:02:55;3.40;;;1.30;;
14306;SDS011;7237;49.500;11.400;2023-08-07T06:05:22;4.97;;;1.43;;
14306;SDS011;7237;49.500;11.400;2023-08-07T06:07:49;4.10;;;1.33;;
14306;SDS011;7237;49.500;11.400;2023-08-07T06:10:16;2.80;;;1.60;;
14306;SDS011;7237;49.500;11.400;2023-08-07T06:12:45;1.97;;;1.60;;
14306;SDS011;7237;49.500;11.400;2023-08-07T06:15:12;1.47;;;1.37;;
14306;SDS011;7237;49.500;11.400;2023-08-07T06:17:39;3.30;;;1.80;;
14306;SDS011;7237;49.500;11.400;2023-08-07T06:20:07;2.60;;;1.77;;
14306;SDS011;7237;49.500;11.400;2023-08-07T06:22:37;2.33;;;1.40;;
14306;SDS011;7237;49.500;11.400;2023-08-07T06:25:04;2.03;;;1.60;;
14306;SDS011;7237;49.500;11.400;2023-08-07T06:27:31;4.83;;;1.47;;
14306;SDS011;7237;49.500;11.400;2023-08-07T06:30:00;3.43;;;1.40;;
14306;SDS011;7237;49.500;11.400;2023-08-07T06:32:27;1.50;;;1.40;;
14306;SDS011;7237;49.500;11.400;2023-08-07T06:34:54;3.83;;;1.50;;
14306;SDS011;7237;49.500;11.400;2023-08-07T06:37:22;1.60;;;1.50;;
14306;SDS011;7237;49.500;11.400;2023-08-07T06:39:49;3.37;;;1.73;;
14306;SDS011;7237;49.500;11.400;2023-08-07T06:42:16;1.30;;;1.20;;
14306;SDS011;7237;49.500;11.400;2023-08-07T06:44:43;2.43;;;1.50;;
14306;SDS011;7237;49.500;11.400;2023-08-07T06:47:11;3.60;;;1.37;;
14306;SDS011;7237;49.500;11.400;2023-08-07T06:49:38;1.97;;;1.40;;
14306;SDS011;7237;49.500;11.400;2023-08-07T06:52:06;3.10;;;1.47;;
14306;SDS011;7237;49.500;11.400;2023-08-07T06:54:33;1.77;;;1.67;;
14306;SDS011;7237;49.500;11.400;2023-08-07T06:57:00;3.23;;;1.33;;
14306;SDS011;7237;49.500;11.400;2023-08-07T06:59:27;1.67;;;1.57;;
14306;SDS011;7237;49.500;11.400;2023-08-07T07:01:54;4.47;;;1.70;;
14306;SDS011;7237;49.500;11.400;2023-08-07T07:04:22;2.73;;;1.40;;
14306;SDS011;7237;49.500;11.400;2023-08-07T07:06:49;1.23;;;1.13;;
14306;SDS011;7237;49.500;11.400;2023-08-07T07:09:17;4.20;;;1.30;;
14306;SDS011;7237;49.500;11.400;2023-08-07T07:11:44;2.47;;;1.53;;
14306;SDS011;7237;49.500;11.400;2023-08-07T07:14:11;1.47;;;1.37;;
14306;SDS011;7237;49.500;11.400;2023-08-07T07:16:38;2.83;;;1.07;;
14306;SDS011;7237;49.500;11.400;2023-08-07T07:19:07;2.97;;;1.60;;
14306;SDS011;7237;49.500;11.400;2023-08-07T07:21:36;3.17;;;1.70;;
14306;SDS011;7237;49.500;11.400;2023-08-07T07:24:03;2.07;;;1.27;;
14306;SDS011;7237;49.500;11.400;2023-08-07T07:26:31;2.53;;;1.57;;
14306;SDS011;7237;49.500;11.400;2023-08-07T07:28:58;2.67;;;1.40;;
14306;SDS011;7237;49.500;11.400;2023-08-07T07:31:25;2.80;;;1.47;;
14306;SDS011;7237;49.500;11.400;2023-08-07T07:33:52;4.33;;;1.60;;
14306;SDS011;7237;49.500;11.400;2023-08-07T07:36:19;2.97;;;1.77;;
14306;SDS011;7237;49.500;11.400;2023-08-07T07:38:48;6.27;;;2.03;;
14306;SDS011;7237;49.500;11.400;2023-08-07T07:41:15;2.10;;;1.90;;
14306;SDS011;7237;49.500;11.400;2023-08-07T07:43:42;5.73;;;1.93;;
14306;SDS011;7237;49.500;11.400;2023-08-07T07:46:09;4.90;;;2.00;;
14306;SDS011;7237;49.500;11.400;2023-08-07T07:48:36;2.60;;;1.60;;
14306;SDS011;7237;49.500;11.400;2023-08-07T07:51:03;3.13;;;1.83;;
14306;SDS011;7237;49.500;11.400;2023-08-07T07:53:31;2.10;;;1.90;;
14306;SDS011;7237;49.500;11.400;2023-08-07T07:55:59;2.43;;;1.77;;
14306;SDS011;7237;49.500;11.400;2023-08-07T07:58:26;4.77;;;2.60;;
14306;SDS011;7237;49.500;11.400;2023-08-07T08:00:53;4.07;;;1.77;;
14306;SDS011;7237;49.500;11.400;2023-08-07T08:03:21;5.43;;;1.80;;
14306;SDS011;7237;49.500;11.400;2023-08-07T08:05:49;4.70;;;1.70;;
14306;SDS011;7237;49.500;11.400;2023-08-07T08:08:16;1.43;;;1.33;;
14306;SDS011;7237;49.500;11.400;2023-08-07T08:10:43;2.70;;;1.47;;
14306;SDS011;7237;49.500;11.400;2023-08-07T08:13:13;2.37;;;1.67;;
14306;SDS011;7237;49.500;11.400;2023-08-07T08:15:40;2.87;;;1.87;;
14306;SDS011;7237;49.500;11.400;2023-08-07T08:18:08;2.33;;;1.77;;
14306;SDS011;7237;49.500;11.400;2023-08-07T08:20:35;4.47;;;2.40;;
14306;SDS011;7237;49.500;11.400;2023-08-07T08:23:02;4.23;;;2.20;;
14306;SDS011;7237;49.500;11.400;2023-08-07T08:25:29;3.73;;;1.97;;
14306;SDS011;7237;49.500;11.400;2023-08-07T08:27:57;3.20;;;1.70;;
14306;SDS011;7237;49.500;11.400;2023-08-07T08:30:28;2.23;;;1.80;;
14306;SDS011;7237;49.500;11.400;2023-08-07T08:32:55;2.73;;;1.80;;
14306;SDS011;7237;49.500;11.400;2023-08-07T08:35:22;3.40;;;1.80;;
14306;SDS011;7237;49.500;11.400;2023-08-07T08:37:50;4.03;;;2.20;;
14306;SDS011;7237;49.500;11.400;2023-08-07T08:40:17;2.33;;;2.13;;
14306;SDS011;7237;49.500;11.400;2023-08-07T08:42:44;3.87;;;1.90;;
14306;SDS011;7237;49.500;11.400;2023-08-07T08:45:13;3.60;;;1.70;;
14306;SDS011;7237;49.500;11.400;2023-08-07T08:47:42;3.77;;;2.20;;
14306;SDS011;7237;49.500;11.400;2023-08-07T08:50:10;2.27;;;1.70;;
14306;SDS011;7237;49.500;11.400;2023-08-07T08:52:38;2.83;;;1.77;;
14306;SDS011;7237;49.500;11.400;2023-08-07T08:55:05;5.10;;;1.83;;
14306;SDS011;7237;49.500;11.400;2023-08-07T08:57:33;4.53;;;1.90;;
14306;SDS011;7237;49.500;11.400;2023-08-07T09:00:00;4.27;;;2.17;;
14306;SDS011;7237;49.500;11.400;2023-08-07T09:02:32;5.23;;;2.07;;
14306;SDS011;7237;49.500;11.400;2023-08-07T09:05:00;2.73;;;1.50;;
14306;SDS011;7237;49.500;11.400;2023-08-07T09:07:27;3.87;;;2.00;;
14306;SDS011;7237;49.500;11.400;2023-08-07T09:09:55;2.13;;;1.80;;
14306;SDS011;7237;49.500;11.400;2023-08-07T09:12:23;3.40;;;1.83;;
14306;SDS011;7237;49.500;11.400;2023-08-07T09:14:52;18.47;;;2.33;;
14306;SDS011;7237;49.500;11.400;2023-08-07T09:17:21;5.33;;;1.97;;
14306;SDS011;7237;49.500;11.400;2023-08-07T09:19:50;3.17;;;1.70;;
14306;SDS011;7237;49.500;11.400;2023-08-07T09:22:18;4.50;;;2.07;;
14306;SDS011;7237;49.500;11.400;2023-08-07T09:24:46;3.73;;;1.80;;
14306;SDS011;7237;49.500;11.400;2023-08-07T09:27:13;3.83;;;2.00;;
14306;SDS011;7237;49.500;11.400;2023-08-07T09:29:40;2.37;;;1.57;;
14306;SDS011;7237;49.500;11.400;2023-08-07T09:32:07;2.47;;;1.53;;
14306;SDS011;7237;49.500;11.400;2023-08-07T09:34:35;2.60;;;1.80;;
14306;SDS011;7237;49.500;11.400;2023-08-07T09:37:02;2.28;;;1.90;;
14306;SDS011;7237;49.500;11.400;2023-08-07T09:39:31;5.70;;;1.83;;
14306;SDS011;7237;49.500;11.400;2023-08-07T09:41:58;2.33;;;1.87;;
14306;SDS011;7237;49.500;11.400;2023-08-07T09:44:25;4.23;;;1.80;;
14306;SDS011;7237;49.500;11.400;2023-08-07T09:46:52;2.10;;;1.77;;
14306;SDS011;7237;49.500;11.400;2023-08-07T09:49:19;1.80;;;1.70;;
14306;SDS011;7237;49.500;11.400;2023-08-07T09:51:46;2.77;;;1.80;;
14306;SDS011;7237;49.500;11.400;2023-08-07T09:54:16;3.33;;;1.63;;
14306;SDS011;7237;49.500;11.400;2023-08-07T09:56:44;2.27;;;1.77;;
14306;SDS011;7237;49.500;11.400;2023-08-07T09:59:13;2.33;;;1.60;;
14306;SDS011;7237;49.500;11.400;2023-08-07T10:01:40;3.70;;;1.73;;
14306;SDS011;7237;49.500;11.400;2023-08-07T10:04:09;4.47;;;1.97;;
14306;SDS011;7237;49.500;11.400;2023-08-07T10:06:40;1.87;;;1.57;;
14306;SDS011;7237;49.500;11.400;2023-08-07T10:09:08;2.07;;;1.87;;
14306;SDS011;7237;49.500;11.400;2023-08-07T10:11:35;1.60;;;1.50;;
14306;SDS011;7237;49.500;11.400;2023-08-07T10:14:03;3.13;;;1.90;;
14306;SDS011;7237;49.500;11.400;2023-08-07T10:16:31;1.90;;;1.40;;
14306;SDS011;7237;49.500;11.400;2023-08-07T10:19:04;1.60;;;1.50;;
14306;SDS011;7237;49.500;11.400;2023-08-07T10:21:31;2.80;;;1.80;;
14306;SDS011;7237;49.500;11.400;2023-08-07T10:23:59;2.53;;;1.70;;
14306;SDS011;7237;49.500;11.400;2023-08-07T10:26:28;2.67;;;1.70;;
14306;SDS011;7237;49.500;11.400;2023-08-07T10:28:57;2.57;;;1.83;;
14306;SDS011;7237;49.500;11.400;2023-08-07T10:31:26;2.27;;;1.60;;
14306;SDS011;7237;49.500;11.400;2023-08-07T10:33:54;2.73;;;1.63;;
14306;SDS011;7237;49.500;11.400;2023-08-07T10:36:21;2.60;;;1.43;;
14306;SDS011;7237;49.500;11.400;2023-08-07T10:38:48;2.63;;;1.40;;
14306;SDS011;7237;49.500;11.400;2023-08-07T10:41:16;1.93;;;1.63;;
14306;SDS011;7237;49.500;11.400;2023-08-07T10:43:45;1.93;;;1.60;;
14306;SDS011;7237;49.500;11.400;2023-08-07T10:46:14;2.13;;;1.60;;
14306;SDS011;7237;49.500;11.400;2023-08-07T10:48:45;3.87;;;1.70;;
14306;SDS011;7237;49.500;11.400;2023-08-07T10:51:12;2.03;;;1.40;;
14306;SDS011;7237;49.500;11.400;2023-08-07T10:53:40;2.00;;;1.70;;
14306;SDS011;7237;49.500;11.400;2023-08-07T10:56:09;2.07;;;1.47;;
14306;SDS011;7237;49.500;11.400;2023-08-07T10:58:37;2.73;;;1.67;;
14306;SDS011;7237;49.500;11.400;2023-08-07T11:01:17;3.80;;;1.90;;
14306;SDS011;7237;49.500;11.400;2023-08-07T11:03:46;2.40;;;1.70;;
14306;SDS011;7237;49.500;11.400;2023-08-07T11:06:15;2.30;;;1.43;;
14306;SDS011;7237;49.500;11.400;2023-08-07T11:08:42;1.77;;;1.37;;
14306;SDS011;7237;49.500;11.400;2023-08-07T11:11:09;2.33;;;1.20;;
14306;SDS011;7237;49.500;11.400;2023-08-07T11:13:36;4.17;;;1.80;;
14306;SDS011;7237;49.500;11.400;2023-08-07T11:16:03;2.93;;;1.50;;
14306;SDS011;7237;49.500;11.400;2023-08-07T11:18:31;2.57;;;1.40;;
14306;SDS011;7237;49.500;11.400;2023-08-07T11:21:02;2.73;;;1.80;;
14306;SDS011;7237;49.500;11.400;2023-08-07T11:23:29;1.83;;;1.50;;
14306;SDS011;7237;49.500;11.400;2023-08-07T11:25:56;4.43;;;2.30;;
14306;SDS011;7237;49.500;11.400;2023-08-07T11:28:23;1.70;;;1.60;;
14306;SDS011;7237;49.500;11.400;2023-08-07T11:30:50;1.93;;;1.70;;
14306;SDS011;7237;49.500;11.400;2023-08-07T11:33:18;1.60;;;1.50;;
14306;SDS011;7237;49.500;11.400;2023-08-07T11:35:45;2.37;;;1.50;;
14306;SDS011;7237;49.500;11.400;2023-08-07T11:38:15;2.63;;;1.40;;
14306;SDS011;7237;49.500;11.400;2023-08-07T11:40:42;3.30;;;2.00;;
14306;SDS011;7237;49.500;11.400;2023-08-07T11:43:09;2.70;;;1.80;;
14306;SDS011;7237;49.500;11.400;2023-08-07T11:45:36;4.40;;;1.70;;
14306;SDS011;7237;49.500;11.400;2023-08-07T11:48:04;2.43;;;1.80;;
14306;SDS011;7237;49.500;11.400;2023-08-07T11:50:31;2.60;;;1.80;;
14306;SDS011;7237;49.500;11.400;2023-08-07T11:52:58;2.43;;;1.63;;
14306;SDS011;7237;49.500;11.400;2023-08-07T11:55:29;2.90;;;1.80;;
14306;SDS011;7237;49.500;11.400;2023-08-07T11:57:56;1.80;;;1.63;;
14306;SDS011;7237;49.500;11.400;2023-08-07T12:00:24;1.93;;;1.70;;
14306;SDS011;7237;49.500;11.400;2023-08-07T12:02:53;2.07;;;1.80;;
14306;SDS011;7237;49.500;11.400;2023-08-07T12:05:20;7.00;;;2.10;;
14306;SDS011;7237;49.500;11.400;2023-08-07T12:07:48;3.83;;;1.83;;
14306;SDS011;7237;49.500;11.400;2023-08-07T12:10:15;1.60;;;1.40;;
14306;SDS011;7237;49.500;11.400;2023-08-07T12:12:44;4.23;;;2.00;;
14306;SDS011;7237;49.500;11.400;2023-08-07T12:15:11;2.50;;;1.90;;
14306;SDS011;7237;49.500;11.400;2023-08-07T12:17:38;2.10;;;1.70;;
14306;SDS011;7237;49.500;11.400;2023-08-07T12:20:06;2.17;;;1.90;;
14306;SDS011;7237;49.500;11.400;2023-08-07T12:22:35;1.63;;;1.50;;
14306;SDS011;7237;49.500;11.400;2023-08-07T12:25:02;2.87;;;1.63;;
14306;SDS011;7237;49.500;11.400;2023-08-07T12:27:30;2.57;;;2.00;;
14306;SDS011;7237;49.500;11.400;2023-08-07T12:29:58;1.60;;;1.40;;
14306;SDS011;7237;49.500;11.400;2023-08-07T12:32:26;2.67;;;1.43;;
14306;SDS011;7237;49.500;11.400;2023-08-07T12:34:53;2.40;;;1.40;;
14306;SDS011;7237;49.500;11.400;2023-08-07T12:37:20;3.92;;;1.80;;
14306;SDS011;7237;49.500;11.400;2023-08-07T12:39:47;4.07;;;1.73;;
14306;SDS011;7237;49.500;11.400;2023-08-07T12:42:15;2.73;;;1.70;;
14306;SDS011;7237;49.500;11.400;2023-08-07T12:44:42;1.30;;;1.20;;
14306;SDS011;7237;49.500;11.400;2023-08-07T12:47:10;3.33;;;1.53;;
14306;SDS011;7237;49.500;11.400;2023-08-07T12:49:37;2.00;;;1.30;;
14306;SDS011;7237;49.500;11.400;2023-08-07T12:52:05;1.97;;;1.53;;
14306;SDS011;7237;49.500;11.400;2023-08-07T12:54:32;2.30;;;1.20;;
14306;SDS011;7237;49.500;11.400;2023-08-07T12:56:59;1.97;;;0.97;;
14306;SDS011;7237;49.500;11.400;2023-08-07T12:59:26;5.30;;;1.50;;
14306;SDS011;7237;49.500;11.400;2023-08-07T13:01:53;1.47;;;1.37;;
14306;SDS011;7237;49.500;11.400;2023-08-07T13:04:22;1.23;;;1.00;;
14306;SDS011;7237;49.500;11.400;2023-08-07T13:06:49;1.90;;;1.40;;
14306;SDS011;7237;49.500;11.400;2023-08-07T13:09:16;1.97;;;1.60;;
14306;SDS011;7237;49.500;11.400;2023-08-07T13:11:43;1.60;;;1.50;;
14306;SDS011;7237;49.500;11.400;2023-08-07T13:14:10;1.27;;;1.07;;
14306;SDS011;7237;49.500;11.400;2023-08-07T13:16:37;1.83;;;1.10;;
14306;SDS011;7237;49.500;11.400;2023-08-07T13:19:05;2.03;;;1.37;;
14306;SDS011;7237;49.500;11.400;2023-08-07T13:21:33;2.30;;;1.50;;
14306;SDS011;7237;49.500;11.400;2023-08-07T13:24:00;2.90;;;1.40;;
14306;SDS011;7237;49.500;11.400;2023-08-07T13:26:27;1.40;;;1.30;;
14306;SDS011;7237;49.500;11.400;2023-08-07T13:28:54;1.93;;;1.40;;
14306;SDS011;7237;49.500;11.400;2023-08-07T13:31:21;1.43;;;1.20;;
14306;SDS011;7237;49.500;11.400;2023-08-07T13:33:49;2.60;;;1.13;;
14306;SDS011;7237;49.500;11.400;2023-08-07T13:36:16;1.13;;;1.00;;
14306;SDS011;7237;49.500;11.400;2023-08-07T13:38:44;1.20;;;1.10;;
14306;SDS011;7237;49.500;11.400;2023-08-07T13:41:11;4.40;;;1.40;;
14306;SDS011;7237;49.500;11.400;2023-08-07T13:43:38;2.47;;;1.40;;
14306;SDS011;7237;49.500;11.400;2023-08-07T13:46:05;1.73;;;1.23;;
14306;SDS011;7237;49.500;11.400;2023-08-07T13:48:33;2.77;;;1.30;;
14306;SDS011;7237;49.500;11.400;2023-08-07T13:51:00;2.10;;;1.50;;
14306;SDS011;7237;49.500;11.400;2023-08-07T13:53:31;1.67;;;1.57;;
14306;SDS011;7237;49.500;11.400;2023-08-07T13:55:59;4.90;;;2.30;;
14306;SDS011;7237;49.500;11.400;2023-08-07T13:58:26;3.00;;;1.70;;
14306;SDS011;7237;49.500;11.400;2023-08-07T14:00:53;2.53;;;1.23;;
14306;SDS011;7237;49.500;11.400;2023-08-07T14:03:21;1.70;;;1.50;;
14306;SDS011;7237;49.500;11.400;2023-08-07T14:05:48;1.53;;;1.30;;
14306;SDS011;7237;49.500;11.400;2023-08-07T14:08:15;2.47;;;2.20;;
14306;SDS011;7237;49.500;11.400;2023-08-07T14:10:43;2.57;;;1.50;;
14306;SDS011;7237;49.500;11.400;2023-08-07T14:13:11;2.10;;;1.40;;
14306;SDS011;7237;49.500;11.400;2023-08-07T14:15:38;1.93;;;1.67;;
14306;SDS011;7237;49.500;11.400;2023-08-07T14:18:05;1.87;;;1.77;;
14306;SDS011;7237;49.500;11.400;2023-08-07T14:20:32;1.83;;;1.40;;
14306;SDS011;7237;49.500;11.400;2023-08-07T14:22:59;3.93;;;1.50;;
14306;SDS011;7237;49.500;11.400;2023-08-07T14:25:27;1.87;;;1.50;;
14306;SDS011;7237;49.500;11.400;2023-08-07T14:27:54;1.73;;;1.40;;
14306;SDS011;7237;49.500;11.400;2023-08-07T14:30:22;2.90;;;1.73;;
14306;SDS011;7237;49.500;11.400;2023-08-07T14:32:49;3.00;;;1.70;;
14306;SDS011;7237;49.500;11.400;2023-08-07T14:35:17;1.33;;;1.20;;
14306;SDS011;7237;49.500;11.400;2023-08-07T14:37:44;2.47;;;1.70;;
14306;SDS011;7237;49.500;11.400;2023-08-07T14:40:12;1.40;;;1.30;;
14306;SDS011;7237;49.500;11.400;2023-08-07T14:42:40;3.50;;;1.67;;
14306;SDS011;7237;49.500;11.400;2023-08-07T14:45:07;2.93;;;1.83;;
14306;SDS011;7237;49.500;11.400;2023-08-07T14:47:36;4.93;;;1.60;;
14306;SDS011;7237;49.500;11.400;2023-08-07T14:50:03;2.63;;;1.73;;